sensor_id;sensor_type;location;lat;lon;timestamp;P1;durP1;ratioP1;P2;durP2;ratioP2
75191;SDS011;63771;52.580;9.734;2023-04-22T00:02:16;8.30;;;7.10;;
75191;SDS011;63771;52.580;9.734;2023-04-22T00:04:43;7.35;;;6.63;;
75191;SDS011;63771;52.580;9.734;2023-04-22T00:07:13;8.05;;;7.45;;
75191;SDS011;63771;52.580;9.734;2023-04-22T00:09:39;7.78;;;6.97;;
75191;SDS011;63771;52.580;9.734;2023-04-22T00:12:05;7.65;;;6.90;;
75191;SDS011;63771;52.580;9.734;2023-04-22T00:14:31;7.70;;;7.00;;
75191;SDS011;63771;52.580;9.734;2023-04-22T00:16:56;8.33;;;7.10;;
75191;SDS011;63771;52.580;9.734;2023-04-22T00:19:21;7.82;;;6.63;;
75191;SDS011;63771;52.580;9.734;2023-04-22T00:21:47;12.52;;;7.40;;
75191;SDS011;63771;52.580;9.734;2023-04-22T00:24:12;8.25;;;6.40;;
75191;SDS011;63771;52.580;9.734;2023-04-22T00:26:38;7.07;;;6.43;;
75191;SDS011;63771;52.580;9.734;2023-04-22T00:29:03;9.83;;;7.27;;
75191;SDS011;63771;52.580;9.734;2023-04-22T00:31:28;9.07;;;7.50;;
75191;SDS011;63771;52.580;9.734;2023-04-22T00:33:54;7.97;;;7.00;;
75191;SDS011;63771;52.580;9.734;2023-04-22T00:36:19;9.47;;;7.47;;
75191;SDS011;63771;52.580;9.734;2023-04-22T00:38:47;7.93;;;7.13;;
75191;SDS011;63771;52.580;9.734;2023-04-22T00:41:14;10.05;;;8.02;;
75191;SDS011;63771;52.580;9.734;2023-04-22T00:43:39;7.63;;;6.83;;
75191;SDS011;63771;52.580;9.734;2023-04-22T00:46:04;7.63;;;6.93;;
75191;SDS011;63771;52.580;9.734;2023-04-22T00:48:30;8.82;;;7.93;;
75191;SDS011;63771;52.580;9.734;2023-04-22T00:50:55;8.05;;;7.30;;
75191;SDS011;63771;52.580;9.734;2023-04-22T00:53:21;8.53;;;7.37;;
75191;SDS011;63771;52.580;9.734;2023-04-22T00:55:46;8.73;;;7.93;;
75191;SDS011;63771;52.580;9.734;2023-04-22T00:58:12;11.20;;;10.07;;
75191;SDS011;63771;52.580;9.734;2023-04-22T01:00:37;7.65;;;6.90;;
75191;SDS011;63771;52.580;9.734;2023-04-22T01:03:02;8.20;;;7.40;;
75191;SDS011;63771;52.580;9.734;2023-04-22T01:07:57;10.30;;;8.45;;
75191;SDS011;63771;52.580;9.734;2023-04-22T01:10:22;7.78;;;7.03;;
75191;SDS011;63771;52.580;9.734;2023-04-22T01:12:47;8.93;;;7.65;;
75191;SDS011;63771;52.580;9.734;2023-04-22T01:15:13;10.07;;;8.17;;
75191;SDS011;63771;52.580;9.734;2023-04-22T01:17:38;8.10;;;7.28;;
75191;SDS011;63771;52.580;9.734;2023-04-22T01:20:04;8.82;;;7.57;;
75191;SDS011;63771;52.580;9.734;2023-04-22T01:22:34;13.13;;;7.78;;
75191;SDS011;63771;52.580;9.734;2023-04-22T01:25:01;8.20;;;7.40;;
75191;SDS011;63771;52.580;9.734;2023-04-22T01:27:27;10.77;;;7.53;;
75191;SDS011;63771;52.580;9.734;2023-04-22T01:29:52;8.05;;;7.28;;
75191;SDS011;63771;52.580;9.734;2023-04-22T01:32:18;9.00;;;8.10;;
75191;SDS011;63771;52.580;9.734;2023-04-22T01:34:44;12.03;;;7.43;;
75191;SDS011;63771;52.580;9.734;2023-04-22T01:37:09;8.37;;;7.57;;
75191;SDS011;63771;52.580;9.734;2023-04-22T01:39:34;9.37;;;7.33;;
75191;SDS011;63771;52.580;9.734;2023-04-22T01:42:00;11.02;;;7.25;;
75191;SDS011;63771;52.580;9.734;2023-04-22T01:44:27;10.35;;;9.45;;
75191;SDS011;63771;52.580;9.734;2023-04-22T01:46:52;10.70;;;7.90;;
75191;SDS011;63771;52.580;9.734;2023-04-22T01:49:17;8.85;;;7.95;;
75191;SDS011;63771;52.580;9.734;2023-04-22T01:51:43;10.53;;;7.80;;
75191;SDS011;63771;52.580;9.734;2023-04-22T01:54:08;9.17;;;8.17;;
75191;SDS011;63771;52.580;9.734;2023-04-22T01:56:34;10.88;;;8.50;;
75191;SDS011;63771;52.580;9.734;2023-04-22T01:59:00;10.60;;;8.02;;
75191;SDS011;63771;52.580;9.734;2023-04-22T02:01:25;9.00;;;8.10;;
75191;SDS011;63771;52.580;9.734;2023-04-22T02:03:50;11.03;;;7.70;;
75191;SDS011;63771;52.580;9.734;2023-04-22T02:06:16;9.80;;;7.43;;
75191;SDS011;63771;52.580;9.734;2023-04-22T02:08:41;9.43;;;8.43;;
75191;SDS011;63771;52.580;9.734;2023-04-22T02:11:06;8.53;;;7.73;;
75191;SDS011;63771;52.580;9.734;2023-04-22T02:13:38;9.30;;;7.65;;
75191;SDS011;63771;52.580;9.734;2023-04-22T02:16:05;8.82;;;7.97;;
75191;SDS011;63771;52.580;9.734;2023-04-22T02:18:31;10.38;;;9.38;;
75191;SDS011;63771;52.580;9.734;2023-04-22T02:20:56;9.57;;;8.10;;
75191;SDS011;63771;52.580;9.734;2023-04-22T02:23:22;8.93;;;8.07;;
75191;SDS011;63771;52.580;9.734;2023-04-22T02:25:51;11.73;;;9.93;;
75191;SDS011;63771;52.580;9.734;2023-04-22T02:28:17;9.65;;;8.65;;
75191;SDS011;63771;52.580;9.734;2023-04-22T02:30:43;10.02;;;9.02;;
75191;SDS011;63771;52.580;9.734;2023-04-22T02:33:09;9.15;;;8.25;;
75191;SDS011;63771;52.580;9.734;2023-04-22T02:35:34;10.43;;;9.43;;
75191;SDS011;63771;52.580;9.734;2023-04-22T02:38:00;9.83;;;8.80;;
75191;SDS011;63771;52.580;9.734;2023-04-22T02:40:25;12.20;;;9.60;;
75191;SDS011;63771;52.580;9.734;2023-04-22T02:42:50;10.80;;;9.30;;
75191;SDS011;63771;52.580;9.734;2023-04-22T02:45:16;10.40;;;9.33;;
75191;SDS011;63771;52.580;9.734;2023-04-22T02:47:41;12.57;;;8.90;;
75191;SDS011;63771;52.580;9.734;2023-04-22T02:50:06;11.97;;;10.50;;
75191;SDS011;63771;52.580;9.734;2023-04-22T02:52:32;11.05;;;9.27;;
75191;SDS011;63771;52.580;9.734;2023-04-22T02:54:58;11.18;;;10.05;;
75191;SDS011;63771;52.580;9.734;2023-04-22T02:57:23;12.93;;;10.20;;
75191;SDS011;63771;52.580;9.734;2023-04-22T02:59:49;11.23;;;10.23;;
75191;SDS011;63771;52.580;9.734;2023-04-22T03:02:14;12.65;;;8.50;;
75191;SDS011;63771;52.580;9.734;2023-04-22T03:04:39;10.83;;;8.70;;
75191;SDS011;63771;52.580;9.734;2023-04-22T03:07:05;10.23;;;9.23;;
75191;SDS011;63771;52.580;9.734;2023-04-22T03:09:30;11.27;;;9.03;;
75191;SDS011;63771;52.580;9.734;2023-04-22T03:11:56;11.23;;;9.97;;
75191;SDS011;63771;52.580;9.734;2023-04-22T03:14:21;12.97;;;9.37;;
75191;SDS011;63771;52.580;9.734;2023-04-22T03:16:46;12.77;;;9.35;;
75191;SDS011;63771;52.580;9.734;2023-04-22T03:19:12;9.75;;;8.77;;
75191;SDS011;63771;52.580;9.734;2023-04-22T03:21:37;10.63;;;9.15;;
75191;SDS011;63771;52.580;9.734;2023-04-22T03:24:02;10.13;;;9.13;;
75191;SDS011;63771;52.580;9.734;2023-04-22T03:26:28;11.43;;;8.50;;
75191;SDS011;63771;52.580;9.734;2023-04-22T03:28:53;11.63;;;10.63;;
75191;SDS011;63771;52.580;9.734;2023-04-22T03:31:18;11.30;;;10.20;;
75191;SDS011;63771;52.580;9.734;2023-04-22T03:33:44;11.60;;;10.50;;
75191;SDS011;63771;52.580;9.734;2023-04-22T03:36:09;10.15;;;9.15;;
75191;SDS011;63771;52.580;9.734;2023-04-22T03:38:35;11.13;;;9.13;;
75191;SDS011;63771;52.580;9.734;2023-04-22T03:41:00;11.57;;;10.37;;
75191;SDS011;63771;52.580;9.734;2023-04-22T03:43:25;9.97;;;9.03;;
75191;SDS011;63771;52.580;9.734;2023-04-22T03:45:50;11.23;;;10.10;;
75191;SDS011;63771;52.580;9.734;2023-04-22T03:48:16;11.63;;;10.23;;
75191;SDS011;63771;52.580;9.734;2023-04-22T03:50:41;10.50;;;9.20;;
75191;SDS011;63771;52.580;9.734;2023-04-22T03:53:06;10.57;;;9.50;;
75191;SDS011;63771;52.580;9.734;2023-04-22T03:55:32;11.07;;;9.93;;
75191;SDS011;63771;52.580;9.734;2023-04-22T03:57:58;12.52;;;10.27;;
75191;SDS011;63771;52.580;9.734;2023-04-22T04:00:23;10.93;;;9.20;;
75191;SDS011;63771;52.580;9.734;2023-04-22T04:02:48;16.98;;;9.80;;
75191;SDS011;63771;52.580;9.734;2023-04-22T04:05:14;12.63;;;9.67;;
75191;SDS011;63771;52.580;9.734;2023-04-22T04:07:39;10.70;;;9.60;;
75191;SDS011;63771;52.580;9.734;2023-04-22T04:10:05;12.40;;;9.65;;
75191;SDS011;63771;52.580;9.734;2023-04-22T04:12:30;11.93;;;9.85;;
75191;SDS011;63771;52.580;9.734;2023-04-22T04:14:56;11.57;;;9.07;;
75191;SDS011;63771;52.580;9.734;2023-04-22T04:17:21;13.70;;;10.65;;
75191;SDS011;63771;52.580;9.734;2023-04-22T04:19:50;11.50;;;9.68;;
75191;SDS011;63771;52.580;9.734;2023-04-22T04:22:16;11.48;;;10.30;;
75191;SDS011;63771;52.580;9.734;2023-04-22T04:24:42;11.65;;;10.63;;
75191;SDS011;63771;52.580;9.734;2023-04-22T04:27:08;10.98;;;9.93;;
75191;SDS011;63771;52.580;9.734;2023-04-22T04:29:34;12.68;;;11.20;;
75191;SDS011;63771;52.580;9.734;2023-04-22T04:31:59;11.90;;;10.18;;
75191;SDS011;63771;52.580;9.734;2023-04-22T04:34:25;10.93;;;9.77;;
75191;SDS011;63771;52.580;9.734;2023-04-22T04:36:50;11.20;;;10.20;;
75191;SDS011;63771;52.580;9.734;2023-04-22T04:39:16;12.48;;;9.85;;
75191;SDS011;63771;52.580;9.734;2023-04-22T04:41:41;11.27;;;9.97;;
75191;SDS011;63771;52.580;9.734;2023-04-22T04:44:08;10.60;;;9.45;;
75191;SDS011;63771;52.580;9.734;2023-04-22T04:46:34;10.88;;;9.55;;
75191;SDS011;63771;52.580;9.734;2023-04-22T04:49:01;10.98;;;9.85;;
75191;SDS011;63771;52.580;9.734;2023-04-22T04:51:28;11.25;;;9.98;;
75191;SDS011;63771;52.580;9.734;2023-04-22T04:53:53;11.50;;;9.63;;
75191;SDS011;63771;52.580;9.734;2023-04-22T04:56:19;12.17;;;10.27;;
75191;SDS011;63771;52.580;9.734;2023-04-22T04:58:44;11.70;;;9.55;;
75191;SDS011;63771;52.580;9.734;2023-04-22T05:01:10;11.18;;;10.07;;
75191;SDS011;63771;52.580;9.734;2023-04-22T05:03:35;10.87;;;9.83;;
75191;SDS011;63771;52.580;9.734;2023-04-22T05:06:00;10.87;;;9.77;;
75191;SDS011;63771;52.580;9.734;2023-04-22T05:08:28;11.65;;;9.88;;
75191;SDS011;63771;52.580;9.734;2023-04-22T05:10:53;11.40;;;9.53;;
75191;SDS011;63771;52.580;9.734;2023-04-22T05:13:18;10.17;;;9.27;;
75191;SDS011;63771;52.580;9.734;2023-04-22T05:15:43;11.70;;;10.27;;
75191;SDS011;63771;52.580;9.734;2023-04-22T05:18:09;11.63;;;9.20;;
75191;SDS011;63771;52.580;9.734;2023-04-22T05:20:34;9.77;;;8.90;;
75191;SDS011;63771;52.580;9.734;2023-04-22T05:23:00;10.23;;;9.20;;
75191;SDS011;63771;52.580;9.734;2023-04-22T05:25:25;9.83;;;8.83;;
75191;SDS011;63771;52.580;9.734;2023-04-22T05:27:50;10.05;;;8.63;;
75191;SDS011;63771;52.580;9.734;2023-04-22T05:30:16;11.40;;;9.40;;
75191;SDS011;63771;52.580;9.734;2023-04-22T05:32:41;10.03;;;9.00;;
75191;SDS011;63771;52.580;9.734;2023-04-22T05:35:07;10.63;;;9.33;;
75191;SDS011;63771;52.580;9.734;2023-04-22T05:37:33;9.93;;;8.95;;
75191;SDS011;63771;52.580;9.734;2023-04-22T05:39:58;16.58;;;9.68;;
75191;SDS011;63771;52.580;9.734;2023-04-22T05:42:24;10.60;;;9.50;;
75191;SDS011;63771;52.580;9.734;2023-04-22T05:44:49;14.40;;;9.93;;
75191;SDS011;63771;52.580;9.734;2023-04-22T05:47:15;10.50;;;9.48;;
75191;SDS011;63771;52.580;9.734;2023-04-22T05:49:40;12.18;;;9.75;;
75191;SDS011;63771;52.580;9.734;2023-04-22T05:52:05;11.88;;;9.45;;
75191;SDS011;63771;52.580;9.734;2023-04-22T05:54:31;9.97;;;8.50;;
75191;SDS011;63771;52.580;9.734;2023-04-22T05:56:56;9.17;;;8.37;;
75191;SDS011;63771;52.580;9.734;2023-04-22T05:59:22;10.30;;;8.75;;
75191;SDS011;63771;52.580;9.734;2023-04-22T06:01:47;10.32;;;8.80;;
75191;SDS011;63771;52.580;9.734;2023-04-22T06:04:13;9.75;;;8.60;;
75191;SDS011;63771;52.580;9.734;2023-04-22T06:06:38;9.82;;;7.80;;
75191;SDS011;63771;52.580;9.734;2023-04-22T06:09:04;8.85;;;7.95;;
75191;SDS011;63771;52.580;9.734;2023-04-22T06:11:30;10.70;;;7.75;;
75191;SDS011;63771;52.580;9.734;2023-04-22T06:13:56;8.25;;;7.50;;
75191;SDS011;63771;52.580;9.734;2023-04-22T06:16:21;10.48;;;7.82;;
75191;SDS011;63771;52.580;9.734;2023-04-22T06:18:47;10.18;;;8.20;;
75191;SDS011;63771;52.580;9.734;2023-04-22T06:21:12;9.57;;;6.97;;
75191;SDS011;63771;52.580;9.734;2023-04-22T06:23:37;8.93;;;8.03;;
75191;SDS011;63771;52.580;9.734;2023-04-22T06:26:03;11.00;;;8.83;;
75191;SDS011;63771;52.580;9.734;2023-04-22T06:28:29;10.45;;;7.95;;
75191;SDS011;63771;52.580;9.734;2023-04-22T06:30:54;11.13;;;8.43;;
75191;SDS011;63771;52.580;9.734;2023-04-22T06:33:19;11.47;;;8.07;;
75191;SDS011;63771;52.580;9.734;2023-04-22T06:35:45;9.63;;;7.80;;
75191;SDS011;63771;52.580;9.734;2023-04-22T06:38:10;9.57;;;7.43;;
75191;SDS011;63771;52.580;9.734;2023-04-22T06:40:35;8.23;;;6.85;;
75191;SDS011;63771;52.580;9.734;2023-04-22T06:43:01;8.48;;;6.78;;
75191;SDS011;63771;52.580;9.734;2023-04-22T06:45:26;9.87;;;7.63;;
75191;SDS011;63771;52.580;9.734;2023-04-22T06:47:52;9.18;;;6.97;;
75191;SDS011;63771;52.580;9.734;2023-04-22T06:50:20;8.07;;;6.90;;
75191;SDS011;63771;52.580;9.734;2023-04-22T06:52:45;10.25;;;7.97;;
75191;SDS011;63771;52.580;9.734;2023-04-22T06:55:11;8.88;;;6.80;;
75191;SDS011;63771;52.580;9.734;2023-04-22T06:57:36;7.25;;;6.45;;
75191;SDS011;63771;52.580;9.734;2023-04-22T07:00:03;7.43;;;6.68;;
75191;SDS011;63771;52.580;9.734;2023-04-22T07:02:30;7.65;;;6.65;;
75191;SDS011;63771;52.580;9.734;2023-04-22T07:04:56;9.43;;;6.55;;
75191;SDS011;63771;52.580;9.734;2023-04-22T07:07:21;9.20;;;6.17;;
75191;SDS011;63771;52.580;9.734;2023-04-22T07:09:46;13.88;;;7.03;;
75191;SDS011;63771;52.580;9.734;2023-04-22T07:12:12;7.93;;;5.90;;
75191;SDS011;63771;52.580;9.734;2023-04-22T07:14:39;7.32;;;6.07;;
75191;SDS011;63771;52.580;9.734;2023-04-22T07:17:07;8.60;;;5.82;;
75191;SDS011;63771;52.580;9.734;2023-04-22T07:19:32;6.85;;;5.28;;
75191;SDS011;63771;52.580;9.734;2023-04-22T07:21:57;7.40;;;5.93;;
75191;SDS011;63771;52.580;9.734;2023-04-22T07:24:23;7.10;;;6.07;;
75191;SDS011;63771;52.580;9.734;2023-04-22T07:26:48;6.50;;;5.85;;
75191;SDS011;63771;52.580;9.734;2023-04-22T07:29:13;6.03;;;5.50;;
75191;SDS011;63771;52.580;9.734;2023-04-22T07:31:40;7.35;;;6.28;;
75191;SDS011;63771;52.580;9.734;2023-04-22T07:34:05;8.45;;;5.38;;
75191;SDS011;63771;52.580;9.734;2023-04-22T07:36:31;5.82;;;5.35;;
75191;SDS011;63771;52.580;9.734;2023-04-22T07:38:57;6.53;;;5.05;;
75191;SDS011;63771;52.580;9.734;2023-04-22T07:41:22;5.95;;;4.88;;
75191;SDS011;63771;52.580;9.734;2023-04-22T07:43:48;7.70;;;4.97;;
75191;SDS011;63771;52.580;9.734;2023-04-22T07:46:13;5.40;;;4.73;;
75191;SDS011;63771;52.580;9.734;2023-04-22T07:48:38;6.13;;;5.03;;
75191;SDS011;63771;52.580;9.734;2023-04-22T07:51:04;5.63;;;4.33;;
75191;SDS011;63771;52.580;9.734;2023-04-22T07:53:29;4.93;;;4.53;;
75191;SDS011;63771;52.580;9.734;2023-04-22T07:55:54;7.43;;;5.38;;
75191;SDS011;63771;52.580;9.734;2023-04-22T07:58:20;4.73;;;4.33;;
75191;SDS011;63771;52.580;9.734;2023-04-22T08:00:45;4.95;;;4.22;;
75191;SDS011;63771;52.580;9.734;2023-04-22T08:03:10;5.30;;;4.45;;
75191;SDS011;63771;52.580;9.734;2023-04-22T08:05:37;9.73;;;5.45;;
75191;SDS011;63771;52.580;9.734;2023-04-22T08:08:03;7.00;;;4.85;;
75191;SDS011;63771;52.580;9.734;2023-04-22T08:10:29;4.15;;;3.72;;
75191;SDS011;63771;52.580;9.734;2023-04-22T08:12:54;6.57;;;5.07;;
75191;SDS011;63771;52.580;9.734;2023-04-22T08:15:20;6.03;;;4.17;;
75191;SDS011;63771;52.580;9.734;2023-04-22T08:17:45;6.27;;;4.10;;
75191;SDS011;63771;52.580;9.734;2023-04-22T08:20:10;5.90;;;4.20;;
75191;SDS011;63771;52.580;9.734;2023-04-22T08:22:36;6.97;;;5.05;;
75191;SDS011;63771;52.580;9.734;2023-04-22T08:25:02;5.97;;;4.80;;
75191;SDS011;63771;52.580;9.734;2023-04-22T08:27:28;7.15;;;4.18;;
75191;SDS011;63771;52.580;9.734;2023-04-22T08:29:54;5.43;;;3.90;;
75191;SDS011;63771;52.580;9.734;2023-04-22T08:32:20;4.68;;;4.20;;
75191;SDS011;63771;52.580;9.734;2023-04-22T08:34:46;6.25;;;4.10;;
75191;SDS011;63771;52.580;9.734;2023-04-22T08:37:11;5.40;;;4.10;;
75191;SDS011;63771;52.580;9.734;2023-04-22T08:39:37;3.97;;;3.65;;
75191;SDS011;63771;52.580;9.734;2023-04-22T08:42:03;5.50;;;3.77;;
75191;SDS011;63771;52.580;9.734;2023-04-22T08:44:29;6.35;;;3.97;;
75191;SDS011;63771;52.580;9.734;2023-04-22T08:46:55;4.30;;;3.95;;
75191;SDS011;63771;52.580;9.734;2023-04-22T08:49:20;5.57;;;4.07;;
75191;SDS011;63771;52.580;9.734;2023-04-22T08:51:47;3.70;;;3.40;;
75191;SDS011;63771;52.580;9.734;2023-04-22T08:54:13;4.38;;;3.53;;
75191;SDS011;63771;52.580;9.734;2023-04-22T08:56:40;4.72;;;4.07;;
75191;SDS011;63771;52.580;9.734;2023-04-22T08:59:11;5.55;;;3.88;;
75191;SDS011;63771;52.580;9.734;2023-04-22T09:01:38;4.38;;;3.97;;
75191;SDS011;63771;52.580;9.734;2023-04-22T09:04:04;5.57;;;4.63;;
75191;SDS011;63771;52.580;9.734;2023-04-22T09:06:31;3.97;;;3.58;;
75191;SDS011;63771;52.580;9.734;2023-04-22T09:08:57;3.50;;;3.15;;
75191;SDS011;63771;52.580;9.734;2023-04-22T09:11:23;3.53;;;3.22;;
75191;SDS011;63771;52.580;9.734;2023-04-22T09:13:51;3.70;;;3.40;;
75191;SDS011;63771;52.580;9.734;2023-04-22T09:16:18;7.72;;;3.63;;
75191;SDS011;63771;52.580;9.734;2023-04-22T09:18:43;5.27;;;3.67;;
75191;SDS011;63771;52.580;9.734;2023-04-22T09:21:11;5.05;;;3.63;;
75191;SDS011;63771;52.580;9.734;2023-04-22T09:24:10;4.07;;;3.58;;
75191;SDS011;63771;52.580;9.734;2023-04-22T09:26:30;4.45;;;3.38;;
75191;SDS011;63771;52.580;9.734;2023-04-22T09:28:56;4.40;;;3.25;;
75191;SDS011;63771;52.580;9.734;2023-04-22T09:31:23;4.30;;;3.63;;
75191;SDS011;63771;52.580;9.734;2023-04-22T09:33:50;5.18;;;4.68;;
75191;SDS011;63771;52.580;9.734;2023-04-22T09:36:21;3.83;;;3.50;;
75191;SDS011;63771;52.580;9.734;2023-04-22T09:38:51;4.22;;;2.70;;
75191;SDS011;63771;52.580;9.734;2023-04-22T09:41:24;2.97;;;2.78;;
75191;SDS011;63771;52.580;9.734;2023-04-22T09:43:50;6.32;;;3.42;;
75191;SDS011;63771;52.580;9.734;2023-04-22T09:46:16;3.17;;;2.92;;
75191;SDS011;63771;52.580;9.734;2023-04-22T09:48:41;6.57;;;2.90;;
75191;SDS011;63771;52.580;9.734;2023-04-22T09:51:14;4.30;;;3.25;;
75191;SDS011;63771;52.580;9.734;2023-04-22T09:53:43;3.30;;;2.97;;
75191;SDS011;63771;52.580;9.734;2023-04-22T09:56:09;3.25;;;3.00;;
75191;SDS011;63771;52.580;9.734;2023-04-22T09:58:38;6.43;;;2.77;;
75191;SDS011;63771;52.580;9.734;2023-04-22T10:01:03;4.20;;;3.05;;
75191;SDS011;63771;52.580;9.734;2023-04-22T10:03:29;3.53;;;3.15;;
75191;SDS011;63771;52.580;9.734;2023-04-22T10:05:56;3.97;;;2.60;;
75191;SDS011;63771;52.580;9.734;2023-04-22T10:08:21;2.90;;;2.70;;
75191;SDS011;63771;52.580;9.734;2023-04-22T10:10:47;5.53;;;2.47;;
75191;SDS011;63771;52.580;9.734;2023-04-22T10:13:12;2.65;;;2.40;;
75191;SDS011;63771;52.580;9.734;2023-04-22T10:15:41;3.77;;;2.83;;
75191;SDS011;63771;52.580;9.734;2023-04-22T10:18:11;4.63;;;2.75;;
75191;SDS011;63771;52.580;9.734;2023-04-22T10:20:38;4.70;;;2.50;;
75191;SDS011;63771;52.580;9.734;2023-04-22T10:23:05;3.47;;;2.28;;
75191;SDS011;63771;52.580;9.734;2023-04-22T10:25:38;2.72;;;2.38;;
75191;SDS011;63771;52.580;9.734;2023-04-22T10:28:04;2.67;;;2.47;;
75191;SDS011;63771;52.580;9.734;2023-04-22T10:30:35;3.13;;;2.90;;
75191;SDS011;63771;52.580;9.734;2023-04-22T10:41:01;4.82;;;3.60;;
75191;SDS011;63771;52.580;9.734;2023-04-22T10:43:39;4.03;;;3.08;;
75191;SDS011;63771;52.580;9.734;2023-04-22T10:48:56;7.03;;;2.40;;
75191;SDS011;63771;52.580;9.734;2023-04-22T10:51:56;2.97;;;2.65;;
75191;SDS011;63771;52.580;9.734;2023-04-22T10:54:58;4.60;;;2.67;;
75191;SDS011;63771;52.580;9.734;2023-04-22T10:57:10;3.90;;;3.25;;
75191;SDS011;63771;52.580;9.734;2023-04-22T10:59:41;4.63;;;2.63;;
75191;SDS011;63771;52.580;9.734;2023-04-22T11:02:11;5.22;;;3.22;;
75191;SDS011;63771;52.580;9.734;2023-04-22T11:04:38;3.03;;;2.83;;
75191;SDS011;63771;52.580;9.734;2023-04-22T11:10:00;3.08;;;2.80;;
75191;SDS011;63771;52.580;9.734;2023-04-22T11:14:58;2.90;;;2.63;;
75191;SDS011;63771;52.580;9.734;2023-04-22T11:17:25;3.03;;;2.83;;
75191;SDS011;63771;52.580;9.734;2023-04-22T11:19:50;3.55;;;2.63;;
75191;SDS011;63771;52.580;9.734;2023-04-22T11:22:20;4.82;;;3.20;;
75191;SDS011;63771;52.580;9.734;2023-04-22T11:24:57;3.25;;;2.47;;
75191;SDS011;63771;52.580;9.734;2023-04-22T11:27:24;3.08;;;2.75;;
75191;SDS011;63771;52.580;9.734;2023-04-22T11:30:16;2.88;;;2.63;;
75191;SDS011;63771;52.580;9.734;2023-04-22T11:32:45;6.80;;;3.20;;
75191;SDS011;63771;52.580;9.734;2023-04-22T11:35:33;3.20;;;2.90;;
75191;SDS011;63771;52.580;9.734;2023-04-22T11:37:59;5.60;;;2.88;;
75191;SDS011;63771;52.580;9.734;2023-04-22T11:42:52;3.38;;;2.35;;
75191;SDS011;63771;52.580;9.734;2023-04-22T11:45:18;2.67;;;2.47;;
75191;SDS011;63771;52.580;9.734;2023-04-22T11:47:44;2.65;;;2.45;;
75191;SDS011;63771;52.580;9.734;2023-04-22T11:50:10;2.97;;;2.67;;
75191;SDS011;63771;52.580;9.734;2023-04-22T11:52:49;3.03;;;2.50;;
75191;SDS011;63771;52.580;9.734;2023-04-22T11:55:23;3.13;;;2.50;;
75191;SDS011;63771;52.580;9.734;2023-04-22T12:00:23;3.33;;;2.88;;
75191;SDS011;63771;52.580;9.734;2023-04-22T12:02:56;3.40;;;2.90;;
75191;SDS011;63771;52.580;9.734;2023-04-22T12:05:39;5.43;;;2.55;;
75191;SDS011;63771;52.580;9.734;2023-04-22T12:08:09;4.10;;;3.03;;
75191;SDS011;63771;52.580;9.734;2023-04-22T12:10:45;4.22;;;3.05;;
75191;SDS011;63771;52.580;9.734;2023-04-22T12:13:26;3.47;;;2.70;;
75191;SDS011;63771;52.580;9.734;2023-04-22T12:16:10;2.90;;;2.70;;
75191;SDS011;63771;52.580;9.734;2023-04-22T12:18:41;2.95;;;2.65;;
75191;SDS011;63771;52.580;9.734;2023-04-22T12:21:12;4.15;;;3.10;;
75191;SDS011;63771;52.580;9.734;2023-04-22T12:23:42;7.55;;;2.72;;
75191;SDS011;63771;52.580;9.734;2023-04-22T12:26:09;2.80;;;2.47;;
75191;SDS011;63771;52.580;9.734;2023-04-22T12:28:36;7.72;;;2.60;;
75191;SDS011;63771;52.580;9.734;2023-04-22T12:31:02;2.60;;;2.42;;
75191;SDS011;63771;52.580;9.734;2023-04-22T12:33:27;3.22;;;2.40;;
75191;SDS011;63771;52.580;9.734;2023-04-22T12:35:52;8.53;;;2.77;;
75191;SDS011;63771;52.580;9.734;2023-04-22T12:38:18;2.58;;;2.00;;
75191;SDS011;63771;52.580;9.734;2023-04-22T12:40:43;3.42;;;2.65;;
75191;SDS011;63771;52.580;9.734;2023-04-22T12:43:09;2.17;;;1.97;;
75191;SDS011;63771;52.580;9.734;2023-04-22T12:45:34;2.50;;;2.30;;
75191;SDS011;63771;52.580;9.734;2023-04-22T12:48:00;2.80;;;2.10;;
75191;SDS011;63771;52.580;9.734;2023-04-22T12:50:25;2.22;;;2.03;;
75191;SDS011;63771;52.580;9.734;2023-04-22T12:52:51;2.17;;;2.08;;
75191;SDS011;63771;52.580;9.734;2023-04-22T12:55:16;3.72;;;2.20;;
75191;SDS011;63771;52.580;9.734;2023-04-22T12:57:44;2.50;;;2.30;;
75191;SDS011;63771;52.580;9.734;2023-04-22T13:00:10;2.42;;;2.33;;
75191;SDS011;63771;52.580;9.734;2023-04-22T13:02:38;5.55;;;2.55;;
75191;SDS011;63771;52.580;9.734;2023-04-22T13:05:07;4.35;;;2.40;;
75191;SDS011;63771;52.580;9.734;2023-04-22T13:07:34;3.15;;;2.20;;
75191;SDS011;63771;52.580;9.734;2023-04-22T13:09:59;3.28;;;2.40;;
75191;SDS011;63771;52.580;9.734;2023-04-22T13:12:25;2.55;;;2.13;;
75191;SDS011;63771;52.580;9.734;2023-04-22T13:14:50;3.53;;;2.10;;
75191;SDS011;63771;52.580;9.734;2023-04-22T13:17:16;2.83;;;2.40;;
75191;SDS011;63771;52.580;9.734;2023-04-22T13:19:41;3.97;;;2.17;;
75191;SDS011;63771;52.580;9.734;2023-04-22T13:22:06;2.45;;;2.35;;
75191;SDS011;63771;52.580;9.734;2023-04-22T13:24:32;2.97;;;2.63;;
75191;SDS011;63771;52.580;9.734;2023-04-22T13:26:57;2.30;;;2.17;;
75191;SDS011;63771;52.580;9.734;2023-04-22T13:29:23;2.10;;;2.00;;
75191;SDS011;63771;52.580;9.734;2023-04-22T13:31:49;3.00;;;2.63;;
75191;SDS011;63771;52.580;9.734;2023-04-22T13:34:14;4.53;;;2.30;;
75191;SDS011;63771;52.580;9.734;2023-04-22T13:36:40;2.10;;;2.00;;
75191;SDS011;63771;52.580;9.734;2023-04-22T13:39:05;2.20;;;2.00;;
75191;SDS011;63771;52.580;9.734;2023-04-22T13:41:31;2.42;;;2.25;;
75191;SDS011;63771;52.580;9.734;2023-04-22T13:43:56;5.43;;;2.10;;
75191;SDS011;63771;52.580;9.734;2023-04-22T13:46:22;2.13;;;1.92;;
75191;SDS011;63771;52.580;9.734;2023-04-22T13:48:47;4.30;;;2.10;;
75191;SDS011;63771;52.580;9.734;2023-04-22T13:51:13;4.23;;;2.20;;
75191;SDS011;63771;52.580;9.734;2023-04-22T13:53:38;2.10;;;2.00;;
75191;SDS011;63771;52.580;9.734;2023-04-22T13:56:04;2.20;;;1.80;;
75191;SDS011;63771;52.580;9.734;2023-04-22T13:58:29;2.97;;;2.10;;
75191;SDS011;63771;52.580;9.734;2023-04-22T14:00:55;2.67;;;2.27;;
75191;SDS011;63771;52.580;9.734;2023-04-22T14:03:20;1.97;;;1.87;;
75191;SDS011;63771;52.580;9.734;2023-04-22T14:05:45;3.05;;;2.10;;
75191;SDS011;63771;52.580;9.734;2023-04-22T14:08:11;2.40;;;2.20;;
75191;SDS011;63771;52.580;9.734;2023-04-22T14:10:36;2.35;;;2.22;;
75191;SDS011;63771;52.580;9.734;2023-04-22T14:13:02;5.47;;;2.40;;
75191;SDS011;63771;52.580;9.734;2023-04-22T14:15:27;2.67;;;1.92;;
75191;SDS011;63771;52.580;9.734;2023-04-22T14:17:52;3.22;;;2.92;;
75191;SDS011;63771;52.580;9.734;2023-04-22T14:20:18;1.90;;;1.80;;
75191;SDS011;63771;52.580;9.734;2023-04-22T14:22:43;1.73;;;1.63;;
75191;SDS011;63771;52.580;9.734;2023-04-22T14:25:09;2.05;;;1.50;;
75191;SDS011;63771;52.580;9.734;2023-04-22T14:27:34;5.18;;;2.38;;
75191;SDS011;63771;52.580;9.734;2023-04-22T14:30:00;1.92;;;1.80;;
75191;SDS011;63771;52.580;9.734;2023-04-22T14:32:25;2.67;;;2.20;;
75191;SDS011;63771;52.580;9.734;2023-04-22T14:34:51;2.38;;;1.88;;
75191;SDS011;63771;52.580;9.734;2023-04-22T14:37:17;2.15;;;1.95;;
75191;SDS011;63771;52.580;9.734;2023-04-22T14:39:42;2.80;;;2.58;;
75191;SDS011;63771;52.580;9.734;2023-04-22T14:42:07;1.90;;;1.80;;
75191;SDS011;63771;52.580;9.734;2023-04-22T14:44:33;5.68;;;2.15;;
75191;SDS011;63771;52.580;9.734;2023-04-22T14:46:58;2.10;;;2.00;;
75191;SDS011;63771;52.580;9.734;2023-04-22T14:49:24;1.80;;;1.70;;
75191;SDS011;63771;52.580;9.734;2023-04-22T14:51:49;2.05;;;1.95;;
75191;SDS011;63771;52.580;9.734;2023-04-22T14:54:15;2.10;;;1.90;;
75191;SDS011;63771;52.580;9.734;2023-04-22T14:56:40;2.13;;;2.03;;
75191;SDS011;63771;52.580;9.734;2023-04-22T14:59:05;2.00;;;1.90;;
75191;SDS011;63771;52.580;9.734;2023-04-22T15:01:31;2.50;;;2.10;;
75191;SDS011;63771;52.580;9.734;2023-04-22T15:03:56;1.83;;;1.73;;